createdAt,value
2023-03-04T00:02:11.587Z,22.10
2023-03-04T00:04:40.750Z,22.10
2023-03-04T00:07:08.478Z,22.10
2023-03-04T00:09:36.246Z,22.10
2023-03-04T00:12:04.096Z,22.10
2023-03-04T00:14:31.776Z,22.00
2023-03-04T00:16:59.480Z,22.10
2023-03-04T00:19:27.163Z,22.00
2023-03-04T00:21:56.240Z,22.00
2023-03-04T00:24:24.858Z,22.00
2023-03-04T00:26:52.582Z,22.00
2023-03-04T00:29:21.796Z,22.00
2023-03-04T00:31:49.639Z,22.00
2023-03-04T00:34:17.380Z,22.00
2023-03-04T00:36:45.432Z,22.00
2023-03-04T00:39:14.629Z,22.00
2023-03-04T00:41:42.573Z,22.00
2023-03-04T00:44:10.309Z,22.00
2023-03-04T00:46:38.071Z,22.00
2023-03-04T00:49:05.760Z,22.00
2023-03-04T00:51:33.488Z,22.00
2023-03-04T00:54:01.228Z,22.00
2023-03-04T00:56:30.327Z,22.00
2023-03-04T00:58:58.093Z,22.00
2023-03-04T01:01:26.537Z,22.00
2023-03-04T01:03:54.260Z,22.00
2023-03-04T01:06:22.096Z,22.00
2023-03-04T01:08:49.796Z,22.00
2023-03-04T01:11:17.538Z,22.00
2023-03-04T01:13:46.645Z,22.00
2023-03-04T01:16:14.373Z,22.00
2023-03-04T01:18:42.215Z,22.00
2023-03-04T01:21:09.992Z,22.00
2023-03-04T01:23:37.694Z,22.00
2023-03-04T01:26:05.880Z,22.00
2023-03-04T01:28:35.682Z,22.00
2023-03-04T01:31:05.146Z,22.00
2023-03-04T01:33:32.964Z,22.00
2023-03-04T01:36:00.913Z,22.00
2023-03-04T01:38:28.797Z,22.00
2023-03-04T01:40:56.543Z,22.00
2023-03-04T01:43:26.754Z,22.00
2023-03-04T01:45:56.061Z,22.00
2023-03-04T01:48:28.244Z,22.00
2023-03-04T01:50:56.236Z,22.00
2023-03-04T01:53:27.086Z,22.00
2023-03-04T01:55:57.108Z,22.00
2023-03-04T01:58:32.831Z,22.00
2023-03-04T02:01:00.721Z,22.00
2023-03-04T02:03:30.129Z,22.00
2023-03-04T02:05:58.094Z,22.00
2023-03-04T02:08:26.432Z,22.00
2023-03-04T02:10:54.933Z,22.00
2023-03-04T02:13:23.299Z,22.00
2023-03-04T02:15:52.910Z,22.00
2023-03-04T02:18:22.448Z,22.00
2023-03-04T02:21:01.241Z,22.00
2023-03-04T02:23:34.001Z,22.00
2023-03-04T02:26:18.519Z,22.00
2023-03-04T02:28:50.640Z,22.00
2023-03-04T02:31:26.114Z,22.00
2023-03-04T02:33:56.174Z,22.00
2023-03-04T02:36:24.281Z,22.00
2023-03-04T02:38:53.295Z,22.00
2023-03-04T02:41:27.075Z,22.00
2023-03-04T02:43:56.633Z,22.00
2023-03-04T02:46:25.345Z,22.00
2023-03-04T02:48:53.660Z,22.00
2023-03-04T02:51:22.516Z,22.00
2023-03-04T02:53:50.292Z,22.00
2023-03-04T02:56:18.090Z,22.00
2023-03-04T02:58:47.117Z,22.00
2023-03-04T03:01:14.802Z,22.00
2023-03-04T03:03:43.027Z,22.00
2023-03-04T03:06:11.876Z,22.00
2023-03-04T03:08:39.705Z,22.00
2023-03-04T03:11:08.928Z,22.00
2023-03-04T03:13:37.517Z,22.00
2023-03-04T03:16:07.165Z,22.00
2023-03-04T03:18:34.901Z,22.00
2023-03-04T03:21:02.579Z,22.00
2023-03-04T03:23:30.292Z,22.00
2023-03-04T03:25:59.352Z,22.00
2023-03-04T03:28:28.682Z,22.00
2023-03-04T03:30:56.434Z,22.00
2023-03-04T03:33:25.505Z,22.00
2023-03-04T03:35:53.548Z,22.00
2023-03-04T03:38:21.371Z,22.00
2023-03-04T03:40:49.091Z,22.00
2023-03-04T03:43:16.816Z,22.00
2023-03-04T03:45:44.602Z,22.00
2023-03-04T03:48:12.493Z,22.00
2023-03-04T03:50:41.529Z,22.00
2023-03-04T03:53:09.239Z,22.00
2023-03-04T03:55:36.952Z,22.00
2023-03-04T03:58:04.668Z,22.00
2023-03-04T04:00:32.473Z,22.00
2023-03-04T04:03:01.634Z,22.00
2023-03-04T04:05:29.433Z,22.00
2023-03-04T04:07:58.522Z,22.00
2023-03-04T04:10:26.416Z,22.00
2023-03-04T04:12:54.095Z,22.00
2023-03-04T04:15:22.196Z,22.00
2023-03-04T04:17:49.912Z,22.00
2023-03-04T04:20:18.065Z,22.00
2023-03-04T04:22:45.917Z,22.00
2023-03-04T04:25:14.953Z,22.00
2023-03-04T04:27:42.669Z,22.00
2023-03-04T04:30:11.776Z,22.00
2023-03-04T04:32:39.471Z,22.00
2023-03-04T04:35:08.649Z,22.00
2023-03-04T04:37:36.384Z,22.00
2023-03-04T04:40:05.264Z,22.00
2023-03-04T04:42:34.309Z,22.00
2023-03-04T04:45:02.177Z,22.00
2023-03-04T04:47:29.901Z,22.00
2023-03-04T04:49:57.598Z,22.00
2023-03-04T04:52:25.285Z,22.00
2023-03-04T04:54:52.988Z,22.00
2023-03-04T04:57:20.837Z,22.00
2023-03-04T04:59:49.994Z,22.00
2023-03-04T05:02:17.730Z,22.00
2023-03-04T05:04:45.440Z,22.00
2023-03-04T05:07:13.152Z,22.00
2023-03-04T05:09:40.844Z,22.00
2023-03-04T05:12:08.664Z,22.00
2023-03-04T05:14:36.368Z,22.00
2023-03-04T05:17:05.508Z,22.00
2023-03-04T05:19:33.227Z,22.00
2023-03-04T05:22:00.906Z,22.00
2023-03-04T05:24:28.653Z,22.00
2023-03-04T05:26:56.369Z,22.00
2023-03-04T05:29:24.261Z,22.00
2023-03-04T05:31:51.966Z,22.00
2023-03-04T05:34:21.036Z,22.00
2023-03-04T05:36:48.735Z,22.00
2023-03-04T05:39:16.722Z,22.00
2023-03-04T05:41:44.425Z,22.00
2023-03-04T05:44:12.157Z,22.00
2023-03-04T05:46:40.000Z,22.00
2023-03-04T05:49:07.753Z,22.00
2023-03-04T05:51:36.786Z,22.00
2023-03-04T05:54:04.646Z,22.00
2023-03-04T05:56:33.424Z,21.90
2023-03-04T05:59:01.564Z,21.90
2023-03-04T06:01:30.181Z,21.90
2023-03-04T06:03:58.090Z,21.90
2023-03-04T06:06:25.794Z,21.90
2023-03-04T06:08:54.871Z,22.00
2023-03-04T06:11:22.635Z,22.00
2023-03-04T06:13:50.372Z,21.90
2023-03-04T06:16:18.135Z,21.90
2023-03-04T06:18:45.894Z,21.90
2023-03-04T06:21:13.588Z,21.90
2023-03-04T06:23:41.970Z,21.90
2023-03-04T06:26:15.271Z,21.90
2023-03-04T06:28:43.035Z,21.90
2023-03-04T06:31:11.086Z,21.90
2023-03-04T06:33:38.832Z,21.90
2023-03-04T06:36:07.397Z,22.00
2023-03-04T06:38:35.095Z,21.90
2023-03-04T06:41:08.876Z,21.90
2023-03-04T06:43:38.457Z,22.00
2023-03-04T06:46:06.505Z,21.90
2023-03-04T06:48:34.556Z,21.90
2023-03-04T06:51:06.679Z,21.90
2023-03-04T06:53:34.413Z,21.90
2023-03-04T06:56:02.181Z,21.90
2023-03-04T06:58:29.911Z,21.90
2023-03-04T07:00:58.972Z,21.90
2023-03-04T07:03:26.690Z,21.90
2023-03-04T07:05:54.379Z,21.90
2023-03-04T07:08:22.209Z,21.90
2023-03-04T07:10:50.462Z,21.90
2023-03-04T07:13:18.153Z,21.90
2023-03-04T07:15:45.827Z,21.90
2023-03-04T07:18:14.920Z,21.90
2023-03-04T07:20:42.610Z,21.90
2023-03-04T07:23:10.307Z,21.90
2023-03-04T07:25:38.028Z,21.90
2023-03-04T07:28:05.786Z,21.90
2023-03-04T07:30:33.486Z,21.90
2023-03-04T07:33:01.203Z,22.00
2023-03-04T07:35:30.373Z,21.90
2023-03-04T07:37:58.105Z,22.00
2023-03-04T07:40:26.505Z,22.00
2023-03-04T07:42:55.799Z,22.00
2023-03-04T07:45:24.660Z,22.00
2023-03-04T07:47:52.489Z,22.00
2023-03-04T07:50:20.469Z,22.00
2023-03-04T07:52:50.818Z,22.00
2023-03-04T07:55:19.047Z,22.00
2023-03-04T07:57:48.413Z,22.00
2023-03-04T08:00:18.303Z,21.90
2023-03-04T08:02:46.045Z,22.00
2023-03-04T08:05:13.755Z,21.90
2023-03-04T08:07:41.569Z,21.90
2023-03-04T08:10:12.148Z,21.90
2023-03-04T08:12:39.853Z,21.90
2023-03-04T08:15:08.927Z,21.90
2023-03-04T08:17:37.580Z,21.90
2023-03-04T08:20:05.878Z,21.90
2023-03-04T08:22:33.555Z,21.90
2023-03-04T08:25:01.287Z,21.90
2023-03-04T08:27:30.437Z,21.80
2023-03-04T08:29:58.239Z,21.90
2023-03-04T08:32:26.094Z,21.90
2023-03-04T08:34:56.129Z,21.90
2023-03-04T08:37:23.890Z,21.90
2023-03-04T08:39:51.570Z,21.90
2023-03-04T08:42:19.267Z,21.90
2023-03-04T08:44:48.296Z,21.90
2023-03-04T08:47:15.981Z,21.90
2023-03-04T08:49:43.657Z,21.90
2023-03-04T08:52:11.360Z,21.90
2023-03-04T08:54:39.096Z,21.90
2023-03-04T08:57:07.720Z,21.90
2023-03-04T08:59:37.849Z,21.90
2023-03-04T09:02:07.787Z,21.80
2023-03-04T09:04:35.716Z,21.90
2023-03-04T09:07:03.422Z,21.80
2023-03-04T09:09:31.188Z,21.80
2023-03-04T09:11:59.088Z,21.80
2023-03-04T09:14:26.913Z,21.80
2023-03-04T09:16:54.891Z,21.90
2023-03-04T09:19:24.137Z,21.90
2023-03-04T09:21:51.816Z,21.90
2023-03-04T09:24:19.531Z,21.90
2023-03-04T09:26:51.337Z,21.90
2023-03-04T09:29:19.019Z,21.90
2023-03-04T09:31:46.940Z,22.00
2023-03-04T09:34:14.846Z,22.00
2023-03-04T09:36:43.917Z,22.00
2023-03-04T09:39:11.648Z,22.00
2023-03-04T09:41:42.916Z,22.00
2023-03-04T09:44:17.636Z,22.00
2023-03-04T09:46:47.919Z,22.00
2023-03-04T09:49:16.928Z,22.10
2023-03-04T09:52:03.007Z,22.10
2023-03-04T09:54:56.464Z,22.10
2023-03-04T09:57:30.845Z,22.10
2023-03-04T10:00:08.119Z,22.10
2023-03-04T10:02:46.825Z,22.10
2023-03-04T10:05:19.336Z,22.10
2023-03-04T10:07:55.378Z,22.10
2023-03-04T10:10:27.482Z,22.20
2023-03-04T10:12:58.131Z,22.20
2023-03-04T10:15:34.766Z,22.20
2023-03-04T10:18:07.823Z,22.20
2023-03-04T10:20:50.451Z,22.20
2023-03-04T10:23:24.635Z,22.20
2023-03-04T10:25:54.140Z,22.20
2023-03-04T10:28:26.485Z,22.20
2023-03-04T10:30:59.474Z,22.20
2023-03-04T10:33:30.412Z,22.20
2023-03-04T10:36:02.645Z,22.20
2023-03-04T10:38:34.042Z,22.20
2023-03-04T10:41:12.645Z,22.20
2023-03-04T10:43:42.476Z,22.20
2023-03-04T10:46:12.367Z,22.30
2023-03-04T10:48:44.771Z,22.30
2023-03-04T10:51:19.013Z,22.30
2023-03-04T10:53:50.221Z,22.30
2023-03-04T10:56:35.907Z,22.30
2023-03-04T10:59:43.350Z,22.30
2023-03-04T11:02:26.654Z,22.30
2023-03-04T11:04:57.321Z,22.30
2023-03-04T11:07:27.178Z,22.30
2023-03-04T11:09:58.380Z,22.30
2023-03-04T11:12:34.889Z,22.30
2023-03-04T11:15:03.545Z,22.30
2023-03-04T11:17:42.763Z,22.30
2023-03-04T11:20:17.559Z,22.30
2023-03-04T11:22:47.097Z,22.30
2023-03-04T11:25:25.494Z,22.30
2023-03-04T11:27:56.440Z,22.30
2023-03-04T11:30:35.163Z,22.30
2023-03-04T11:33:13.292Z,22.30
2023-03-04T11:35:49.203Z,22.30
2023-03-04T11:38:20.911Z,22.30
2023-03-04T11:40:53.720Z,22.30
2023-03-04T11:43:25.924Z,22.30
2023-03-04T11:46:13.158Z,22.30
2023-03-04T11:48:51.972Z,22.30
2023-03-04T11:51:26.594Z,22.30
2023-03-04T11:54:08.080Z,22.30
2023-03-04T11:56:43.180Z,22.30
2023-03-04T11:59:29.371Z,22.30
2023-03-04T12:02:09.983Z,22.30
2023-03-04T12:05:12.969Z,22.30
2023-03-04T12:08:14.443Z,22.30
2023-03-04T12:10:49.681Z,22.40
2023-03-04T12:13:36.534Z,22.40
2023-03-04T12:16:21.070Z,22.40
2023-03-04T12:19:12.647Z,22.40
2023-03-04T12:21:58.673Z,22.40
2023-03-04T12:24:40.139Z,22.40
2023-03-04T12:27:18.059Z,22.50
2023-03-04T12:29:54.699Z,22.50
2023-03-04T12:32:31.971Z,22.50
2023-03-04T12:35:17.423Z,22.50
2023-03-04T12:37:56.545Z,22.60
2023-03-04T12:40:31.116Z,22.70
2023-03-04T12:43:08.852Z,22.70
2023-03-04T12:45:44.980Z,22.70
2023-03-04T12:48:28.421Z,22.70
2023-03-04T12:51:10.554Z,22.60
2023-03-04T12:53:45.580Z,22.60
2023-03-04T12:56:23.953Z,22.60
2023-03-04T12:58:52.417Z,22.50
2023-03-04T13:01:27.185Z,22.50
2023-03-04T13:04:03.100Z,22.50
2023-03-04T13:06:40.585Z,22.40
2023-03-04T13:09:17.041Z,22.40
2023-03-04T13:12:06.324Z,22.40
2023-03-04T13:14:35.963Z,22.30
2023-03-04T13:17:43.086Z,22.30
2023-03-04T13:20:25.032Z,22.30
2023-03-04T13:22:55.879Z,22.20
2023-03-04T13:25:36.230Z,22.20
2023-03-04T13:28:29.366Z,22.20
2023-03-04T13:31:20.552Z,22.20
2023-03-04T13:33:59.051Z,22.10
2023-03-04T13:36:59.558Z,22.10
2023-03-04T13:39:35.291Z,22.10
2023-03-04T13:42:18.521Z,22.10
2023-03-04T13:45:04.228Z,22.10
2023-03-04T13:47:50.023Z,22.10
2023-03-04T13:50:39.994Z,22.10
2023-03-04T13:53:33.923Z,22.10
2023-03-04T13:56:25.745Z,22.10
2023-03-04T13:59:02.459Z,22.10
2023-03-04T14:01:32.243Z,22.10
2023-03-04T14:04:00.705Z,22.10
2023-03-04T14:06:31.610Z,22.10
2023-03-04T14:08:59.614Z,22.10
2023-03-04T14:11:31.380Z,22.10
2023-03-04T14:14:01.222Z,22.10
2023-03-04T14:16:30.179Z,22.10
2023-03-04T14:19:00.393Z,22.10
2023-03-04T14:21:30.068Z,22.10
2023-03-04T14:24:03.520Z,22.10
2023-03-04T14:26:31.624Z,22.10
2023-03-04T14:29:02.003Z,22.10
2023-03-04T14:31:32.564Z,22.10
2023-03-04T14:34:02.793Z,22.10
2023-03-04T14:36:34.134Z,22.10
2023-03-04T14:39:03.804Z,22.10
2023-03-04T14:41:34.965Z,22.10
2023-03-04T14:44:09.486Z,22.10
2023-03-04T14:46:40.275Z,22.10
2023-03-04T14:49:11.742Z,22.10
2023-03-04T14:51:45.622Z,22.10
2023-03-04T14:54:29.149Z,22.10
2023-03-04T14:56:57.574Z,22.10
2023-03-04T14:59:33.573Z,22.00
2023-03-04T15:02:31.049Z,22.10
2023-03-04T15:05:01.099Z,22.00
2023-03-04T15:07:34.336Z,22.00
2023-03-04T15:10:04.446Z,22.00
2023-03-04T15:12:34.944Z,22.00
2023-03-04T15:15:04.941Z,22.00
2023-03-04T15:17:38.390Z,22.00
2023-03-04T15:20:26.371Z,22.00
2023-03-04T15:23:14.674Z,22.00
2023-03-04T15:25:42.457Z,22.00
2023-03-04T15:28:17.734Z,22.00
2023-03-04T15:30:45.614Z,22.00
2023-03-04T15:33:14.603Z,22.00
2023-03-04T15:35:48.772Z,22.00
2023-03-04T15:38:17.838Z,22.00
2023-03-04T15:40:45.570Z,22.00
2023-03-04T15:43:16.574Z,22.00
2023-03-04T15:45:45.297Z,22.00
2023-03-04T15:48:15.213Z,22.00
2023-03-04T15:50:45.255Z,22.00
2023-03-04T15:53:18.571Z,22.00
2023-03-04T15:55:47.487Z,22.00
2023-03-04T15:58:15.963Z,22.00
2023-03-04T16:00:43.750Z,22.00
2023-03-04T16:03:16.864Z,22.00
2023-03-04T16:05:45.838Z,22.00
2023-03-04T16:08:16.380Z,22.00
2023-03-04T16:10:45.707Z,22.00
2023-03-04T16:13:15.845Z,22.00
2023-03-04T16:15:44.240Z,22.00
2023-03-04T16:18:12.844Z,22.00
2023-03-04T16:20:42.604Z,22.00
2023-03-04T16:23:13.665Z,22.00
2023-03-04T16:25:46.003Z,22.00
2023-03-04T16:28:14.536Z,22.00
2023-03-04T16:30:42.880Z,22.00
2023-03-04T16:33:11.660Z,22.00
2023-03-04T16:35:40.351Z,22.00
2023-03-04T16:38:25.991Z,22.00
2023-03-04T16:40:56.120Z,22.00
2023-03-04T16:43:23.870Z,22.00
2023-03-04T16:45:51.794Z,22.00
2023-03-04T16:48:20.165Z,22.00
2023-03-04T16:50:48.184Z,22.00
2023-03-04T16:53:26.051Z,22.00
2023-03-04T16:55:55.199Z,22.00
2023-03-04T16:58:22.861Z,22.00
2023-03-04T17:00:50.629Z,22.00
2023-03-04T17:03:18.311Z,22.00
2023-03-04T17:05:47.625Z,22.00
2023-03-04T17:08:15.698Z,22.00
2023-03-04T17:10:43.435Z,22.00
2023-03-04T17:13:12.469Z,22.00
2023-03-04T17:15:42.586Z,22.00
2023-03-04T17:18:10.409Z,22.00
2023-03-04T17:20:38.144Z,22.00
2023-03-04T17:23:05.856Z,22.00
2023-03-04T17:25:33.763Z,22.00
2023-03-04T17:28:01.473Z,22.00
2023-03-04T17:30:30.748Z,22.00
2023-03-04T17:32:59.060Z,22.00
2023-03-04T17:35:26.950Z,22.00
2023-03-04T17:37:54.746Z,22.00
2023-03-04T17:40:22.600Z,22.00
2023-03-04T17:42:50.600Z,22.00
2023-03-04T17:45:18.390Z,22.10
2023-03-04T17:47:47.401Z,22.10
2023-03-04T17:50:15.093Z,22.10
2023-03-04T17:52:42.961Z,22.10
2023-03-04T17:55:11.293Z,22.10
2023-03-04T17:57:39.529Z,22.20
2023-03-04T18:00:08.433Z,22.20
2023-03-04T18:02:36.231Z,22.20
2023-03-04T18:05:07.333Z,22.30
2023-03-04T18:07:35.214Z,22.40
2023-03-04T18:10:02.960Z,22.50
2023-03-04T18:12:30.668Z,22.60
2023-03-04T18:14:58.378Z,22.60
2023-03-04T18:17:26.436Z,22.60
2023-03-04T18:19:55.065Z,22.60
2023-03-04T18:22:24.238Z,22.60
2023-03-04T18:24:51.957Z,22.60
2023-03-04T18:27:19.777Z,22.60
2023-03-04T18:29:47.487Z,22.50
2023-03-04T18:32:15.286Z,22.50
2023-03-04T18:34:43.069Z,22.50
2023-03-04T18:37:10.826Z,22.50
2023-03-04T18:39:40.058Z,22.50
2023-03-04T18:42:07.770Z,22.40
2023-03-04T18:44:35.498Z,22.40
2023-03-04T18:47:03.452Z,22.40
2023-03-04T18:49:31.265Z,22.40
2023-03-04T18:51:58.995Z,22.40
2023-03-04T18:54:26.663Z,22.40
2023-03-04T18:56:59.040Z,22.30
2023-03-04T18:59:32.416Z,22.30
2023-03-04T19:02:03.072Z,22.30
2023-03-04T19:04:31.233Z,22.30
2023-03-04T19:07:00.216Z,22.30
2023-03-04T19:09:28.006Z,22.30
2023-03-04T19:11:57.052Z,22.30
2023-03-04T19:14:24.735Z,22.20
2023-03-04T19:16:52.481Z,22.20
2023-03-04T19:19:20.229Z,22.20
2023-03-04T19:21:47.934Z,22.20
2023-03-04T19:24:15.734Z,22.20
2023-03-04T19:26:43.449Z,22.20
2023-03-04T19:29:13.425Z,22.20
2023-03-04T19:31:41.926Z,22.20
2023-03-04T19:34:09.835Z,22.20
2023-03-04T19:36:37.638Z,22.20
2023-03-04T19:39:05.938Z,22.20
2023-03-04T19:41:33.655Z,22.20
2023-03-04T19:44:01.403Z,22.20
2023-03-04T19:46:31.334Z,22.20
2023-03-04T19:48:59.020Z,22.20
2023-03-04T19:51:27.495Z,22.20
2023-03-04T19:53:55.582Z,22.10
2023-03-04T19:56:24.086Z,22.10
2023-03-04T19:58:54.105Z,22.10
2023-03-04T20:01:27.833Z,22.10
2023-03-04T20:03:58.427Z,22.10
2023-03-04T20:06:27.447Z,22.10
2023-03-04T20:08:58.128Z,22.10
2023-03-04T20:11:26.369Z,22.10
2023-03-04T20:13:54.899Z,22.10
2023-03-04T20:16:22.681Z,22.10
2023-03-04T20:18:50.421Z,22.10
2023-03-04T20:21:19.469Z,22.10
2023-03-04T20:23:47.604Z,22.10
2023-03-04T20:26:15.362Z,22.10
2023-03-04T20:28:50.851Z,22.10
2023-03-04T20:31:21.618Z,22.10
2023-03-04T20:33:50.357Z,22.10
2023-03-04T20:36:20.961Z,22.10
2023-03-04T20:38:51.282Z,22.10
2023-03-04T20:41:24.061Z,22.10
2023-03-04T20:43:52.265Z,22.10
2023-03-04T20:46:28.946Z,22.10
2023-03-04T20:48:58.940Z,22.10
2023-03-04T20:51:28.638Z,22.00
2023-03-04T20:53:56.440Z,22.00
2023-03-04T20:56:24.434Z,22.00
2023-03-04T20:58:52.959Z,22.00
2023-03-04T21:01:20.864Z,22.00
2023-03-04T21:03:49.628Z,22.00
2023-03-04T21:06:17.720Z,22.00
2023-03-04T21:08:46.788Z,22.00
2023-03-04T21:11:16.758Z,22.00
2023-03-04T21:13:44.773Z,22.00
2023-03-04T21:16:14.179Z,22.00
2023-03-04T21:18:42.408Z,22.00
2023-03-04T21:21:11.849Z,22.00
2023-03-04T21:23:39.711Z,22.00
2023-03-04T21:26:08.897Z,22.00
2023-03-04T21:28:36.631Z,22.00
2023-03-04T21:31:04.874Z,22.00
2023-03-04T21:33:36.414Z,22.00
2023-03-04T21:36:04.481Z,22.00
2023-03-04T21:38:32.189Z,22.00
2023-03-04T21:40:59.934Z,21.90
2023-03-04T21:43:29.022Z,21.90
2023-03-04T21:45:58.247Z,21.90
2023-03-04T21:48:26.603Z,21.90
2023-03-04T21:50:54.406Z,22.00
2023-03-04T21:53:23.600Z,21.90
2023-03-04T21:55:53.078Z,22.00
2023-03-04T21:58:21.138Z,21.90
2023-03-04T22:00:51.698Z,21.90
2023-03-04T22:03:20.396Z,21.90
2023-03-04T22:05:48.627Z,21.90
2023-03-04T22:08:18.052Z,21.90
2023-03-04T22:10:46.873Z,21.90
2023-03-04T22:13:16.357Z,21.90
2023-03-04T22:15:45.387Z,21.90
2023-03-04T22:18:15.171Z,21.90
2023-03-04T22:20:45.121Z,21.90
2023-03-04T22:23:13.613Z,21.90
2023-03-04T22:25:42.410Z,21.90
2023-03-04T22:28:10.332Z,21.90
2023-03-04T22:30:38.211Z,21.90
2023-03-04T22:33:06.184Z,21.90
2023-03-04T22:35:35.290Z,21.90
2023-03-04T22:38:02.980Z,21.90
2023-03-04T22:40:30.752Z,21.90
2023-03-04T22:42:58.454Z,21.90
2023-03-04T22:45:28.115Z,21.90
2023-03-04T22:47:55.923Z,21.90
2023-03-04T22:50:24.230Z,21.90
2023-03-04T22:52:53.320Z,21.90
2023-03-04T22:55:22.763Z,21.90
2023-03-04T22:57:50.733Z,21.90
2023-03-04T23:00:22.020Z,21.90
2023-03-04T23:02:50.173Z,21.90
2023-03-04T23:05:20.672Z,21.90
2023-03-04T23:07:49.727Z,21.90
2023-03-04T23:10:21.003Z,21.90
2023-03-04T23:12:49.533Z,21.90
2023-03-04T23:15:18.502Z,21.90
2023-03-04T23:17:47.259Z,21.90
2023-03-04T23:20:18.415Z,21.90
2023-03-04T23:22:46.572Z,21.90
2023-03-04T23:25:14.868Z,21.90
2023-03-04T23:27:44.442Z,21.90
2023-03-04T23:30:17.170Z,21.90
2023-03-04T23:32:45.560Z,21.90
2023-03-04T23:35:13.294Z,21.90
2023-03-04T23:37:41.009Z,21.90
2023-03-04T23:40:10.604Z,21.90
2023-03-04T23:42:38.616Z,21.90
2023-03-04T23:45:09.057Z,21.90
2023-03-04T23:47:36.795Z,21.90
2023-03-04T23:50:06.931Z,21.90
2023-03-04T23:52:36.335Z,21.90
2023-03-04T23:55:04.361Z,21.90
2023-03-04T23:57:32.093Z,21.90
2023-03-04T23:59:59.777Z,21.90
